Amity, Arkansas
Current Conditions -  °F | °C
As of 11:53 AM on Wednesday 26 Nov 2014 (Local Time) from KMWT Reporting Station
Clear Clear  
Wind Chill: 59°   Ceiling: Unl
Heat Index: 59°   Visibility: 10mi
Dew Point: 31°   Wind: 14mph
Humidity: 35%   Direction: 310°NW
Pressure: 30.01"   Gusts: 23mph
Location:  34.26°N, 93.46°W
Report Text: KMWT 261753Z AUTO 31012G20KT 270V350 10SM CLR 15/M01 A3001 RMK AO2 SLP167 T01501006 10150 21033 55005
Loading
Personal Weather Stations






























Interactive Weather Map New forecast layout! Learn more

10-Day Weather Forecast

Advertisements
Track Severe Weather on mobile